sensor_id;sensor_type;location;lat;lon;timestamp;pressure;altitude;pressure_sealevel;temperature;humidity
30708;BME280;17458;48.958;8.284;2023-05-02T00:02:04;100509.66;;;14.08;72.32
30708;BME280;17458;48.958;8.284;2023-05-02T00:04:48;100507.13;;;14.11;72.39
30708;BME280;17458;48.958;8.284;2023-05-02T00:07:32;100507.00;;;14.08;72.16
30708;BME280;17458;48.958;8.284;2023-05-02T00:10:17;100509.91;;;14.14;72.23
30708;BME280;17458;48.958;8.284;2023-05-02T00:13:01;100513.44;;;14.13;72.38
30708;BME280;17458;48.958;8.284;2023-05-02T00:15:45;100514.22;;;14.10;72.74
30708;BME280;17458;48.958;8.284;2023-05-02T00:18:29;100507.06;;;14.09;72.72
30708;BME280;17458;48.958;8.284;2023-05-02T00:21:13;100508.75;;;14.07;72.61
30708;BME280;17458;48.958;8.284;2023-05-02T00:23:57;100512.28;;;14.06;72.94
30708;BME280;17458;48.958;8.284;2023-05-02T00:26:42;100509.78;;;14.11;72.92
30708;BME280;17458;48.958;8.284;2023-05-02T00:29:26;100515.38;;;14.17;72.64
30708;BME280;17458;48.958;8.284;2023-05-02T00:32:09;100503.41;;;14.07;72.88
30708;BME280;17458;48.958;8.284;2023-05-02T00:34:54;100507.31;;;14.15;72.62
30708;BME280;17458;48.958;8.284;2023-05-02T00:37:38;100508.03;;;14.11;72.71
30708;BME280;17458;48.958;8.284;2023-05-02T00:40:22;100512.13;;;14.02;72.60
30708;BME280;17458;48.958;8.284;2023-05-02T00:43:07;100509.66;;;14.08;72.50
30708;BME280;17458;48.958;8.284;2023-05-02T00:45:51;100509.22;;;13.96;72.34
30708;BME280;17458;48.958;8.284;2023-05-02T00:48:36;100501.81;;;13.89;72.64
30708;BME280;17458;48.958;8.284;2023-05-02T00:51:20;100506.28;;;13.90;72.96
30708;BME280;17458;48.958;8.284;2023-05-02T00:54:05;100508.88;;;13.87;72.93
30708;BME280;17458;48.958;8.284;2023-05-02T00:56:49;100519.41;;;13.83;73.22
30708;BME280;17458;48.958;8.284;2023-05-02T00:59:35;100522.44;;;13.93;72.73
30708;BME280;17458;48.958;8.284;2023-05-02T01:02:36;100516.88;;;13.87;73.06
30708;BME280;17458;48.958;8.284;2023-05-02T01:05:43;100521.59;;;13.94;73.00
30708;BME280;17458;48.958;8.284;2023-05-02T01:08:37;100521.44;;;13.91;72.86
30708;BME280;17458;48.958;8.284;2023-05-02T01:14:32;100517.03;;;13.91;72.44
30708;BME280;17458;48.958;8.284;2023-05-02T01:17:18;100514.63;;;13.75;72.60
30708;BME280;17458;48.958;8.284;2023-05-02T01:20:10;100515.53;;;13.75;73.04
30708;BME280;17458;48.958;8.284;2023-05-02T01:22:59;100522.19;;;13.64;73.13
30708;BME280;17458;48.958;8.284;2023-05-02T01:29:02;100523.94;;;13.64;72.93
30708;BME280;17458;48.958;8.284;2023-05-02T01:31:48;100528.84;;;13.53;73.06
30708;BME280;17458;48.958;8.284;2023-05-02T01:34:35;100527.94;;;13.53;73.48
30708;BME280;17458;48.958;8.284;2023-05-02T01:37:22;100531.72;;;13.58;73.21
30708;BME280;17458;48.958;8.284;2023-05-02T01:40:08;100529.91;;;13.57;73.34
30708;BME280;17458;48.958;8.284;2023-05-02T01:42:56;100538.63;;;13.53;73.18
30708;BME280;17458;48.958;8.284;2023-05-02T01:45:43;100528.00;;;13.54;73.19
30708;BME280;17458;48.958;8.284;2023-05-02T01:48:28;100540.59;;;13.36;73.56
30708;BME280;17458;48.958;8.284;2023-05-02T01:51:14;100540.66;;;13.37;73.42
30708;BME280;17458;48.958;8.284;2023-05-02T01:54:03;100540.22;;;13.27;73.80
30708;BME280;17458;48.958;8.284;2023-05-02T01:56:48;100553.75;;;13.31;73.78
30708;BME280;17458;48.958;8.284;2023-05-02T01:59:34;100563.22;;;13.25;74.19
30708;BME280;17458;48.958;8.284;2023-05-02T02:02:20;100566.94;;;13.28;74.06
30708;BME280;17458;48.958;8.284;2023-05-02T02:05:06;100575.72;;;13.26;73.88
30708;BME280;17458;48.958;8.284;2023-05-02T02:07:51;100576.56;;;13.25;73.95
30708;BME280;17458;48.958;8.284;2023-05-02T02:10:39;100587.22;;;13.25;74.08
30708;BME280;17458;48.958;8.284;2023-05-02T02:13:34;100590.19;;;13.31;74.03
30708;BME280;17458;48.958;8.284;2023-05-02T02:16:24;100593.41;;;13.24;73.79
30708;BME280;17458;48.958;8.284;2023-05-02T02:19:13;100603.94;;;13.21;73.94
30708;BME280;17458;48.958;8.284;2023-05-02T02:21:59;100596.50;;;13.13;74.35
30708;BME280;17458;48.958;8.284;2023-05-02T02:24:44;100602.75;;;13.14;74.03
30708;BME280;17458;48.958;8.284;2023-05-02T02:27:31;100600.19;;;13.16;73.97
30708;BME280;17458;48.958;8.284;2023-05-02T02:30:15;100596.22;;;13.07;73.79
30708;BME280;17458;48.958;8.284;2023-05-02T02:32:59;100604.09;;;13.24;73.71
30708;BME280;17458;48.958;8.284;2023-05-02T02:35:52;100603.59;;;13.32;73.49
30708;BME280;17458;48.958;8.284;2023-05-02T02:38:46;100611.31;;;13.26;73.27
30708;BME280;17458;48.958;8.284;2023-05-02T02:41:43;100603.84;;;13.18;73.32
30708;BME280;17458;48.958;8.284;2023-05-02T02:53:56;100612.34;;;13.10;73.67
30708;BME280;17458;48.958;8.284;2023-05-02T02:56:45;100615.06;;;12.91;74.38
30708;BME280;17458;48.958;8.284;2023-05-02T02:59:37;100614.09;;;13.10;73.87
30708;BME280;17458;48.958;8.284;2023-05-02T03:02:27;100617.09;;;13.16;73.70
30708;BME280;17458;48.958;8.284;2023-05-02T03:05:12;100628.34;;;13.10;73.77
30708;BME280;17458;48.958;8.284;2023-05-02T03:07:58;100625.75;;;13.12;73.68
30708;BME280;17458;48.958;8.284;2023-05-02T03:10:42;100636.50;;;13.13;74.06
30708;BME280;17458;48.958;8.284;2023-05-02T03:13:27;100635.84;;;13.18;73.71
30708;BME280;17458;48.958;8.284;2023-05-02T03:16:24;100639.66;;;13.24;73.51
30708;BME280;17458;48.958;8.284;2023-05-02T03:19:12;100642.41;;;13.26;73.18
30708;BME280;17458;48.958;8.284;2023-05-02T03:21:56;100643.53;;;13.31;73.33
30708;BME280;17458;48.958;8.284;2023-05-02T03:24:41;100646.13;;;13.29;73.13
30708;BME280;17458;48.958;8.284;2023-05-02T03:27:28;100648.34;;;13.39;73.34
30708;BME280;17458;48.958;8.284;2023-05-02T03:30:13;100650.47;;;13.48;73.02
30708;BME280;17458;48.958;8.284;2023-05-02T03:32:57;100650.44;;;13.46;73.37
30708;BME280;17458;48.958;8.284;2023-05-02T03:35:41;100655.94;;;13.51;73.52
30708;BME280;17458;48.958;8.284;2023-05-02T03:38:28;100647.88;;;13.49;73.42
30708;BME280;17458;48.958;8.284;2023-05-02T03:41:13;100654.97;;;13.49;73.54
30708;BME280;17458;48.958;8.284;2023-05-02T03:43:58;100655.25;;;13.55;73.11
30708;BME280;17458;48.958;8.284;2023-05-02T03:46:44;100648.28;;;13.59;72.93
30708;BME280;17458;48.958;8.284;2023-05-02T03:49:29;100646.72;;;13.43;73.15
30708;BME280;17458;48.958;8.284;2023-05-02T03:52:13;100641.94;;;13.36;72.73
30708;BME280;17458;48.958;8.284;2023-05-02T03:55:00;100652.09;;;13.24;73.96
30708;BME280;17458;48.958;8.284;2023-05-02T03:57:45;100652.28;;;13.28;72.98
30708;BME280;17458;48.958;8.284;2023-05-02T04:00:30;100663.66;;;13.24;73.02
30708;BME280;17458;48.958;8.284;2023-05-02T04:03:20;100667.47;;;13.29;72.54
30708;BME280;17458;48.958;8.284;2023-05-02T04:06:05;100669.78;;;13.22;73.03
30708;BME280;17458;48.958;8.284;2023-05-02T04:08:49;100676.16;;;13.25;73.09
30708;BME280;17458;48.958;8.284;2023-05-02T04:11:33;100682.34;;;13.24;72.71
30708;BME280;17458;48.958;8.284;2023-05-02T04:14:19;100695.28;;;13.15;72.83
30708;BME280;17458;48.958;8.284;2023-05-02T04:17:05;100700.59;;;13.15;73.01
30708;BME280;17458;48.958;8.284;2023-05-02T04:20:09;100705.75;;;13.12;73.03
30708;BME280;17458;48.958;8.284;2023-05-02T04:22:56;100705.63;;;13.09;73.08
30708;BME280;17458;48.958;8.284;2023-05-02T04:25:40;100708.19;;;13.07;72.95
30708;BME280;17458;48.958;8.284;2023-05-02T04:28:24;100707.22;;;13.05;72.94
30708;BME280;17458;48.958;8.284;2023-05-02T04:31:11;100706.53;;;13.09;72.87
30708;BME280;17458;48.958;8.284;2023-05-02T04:33:56;100713.34;;;13.03;72.97
30708;BME280;17458;48.958;8.284;2023-05-02T04:36:44;100715.38;;;13.08;72.77
30708;BME280;17458;48.958;8.284;2023-05-02T04:39:30;100714.00;;;13.17;72.97
30708;BME280;17458;48.958;8.284;2023-05-02T04:42:19;100723.94;;;13.21;72.55
30708;BME280;17458;48.958;8.284;2023-05-02T04:45:18;100726.13;;;13.29;72.33
30708;BME280;17458;48.958;8.284;2023-05-02T04:48:03;100730.34;;;13.24;72.24
30708;BME280;17458;48.958;8.284;2023-05-02T04:50:49;100737.91;;;13.34;72.43
30708;BME280;17458;48.958;8.284;2023-05-02T04:53:33;100739.84;;;13.58;72.08
30708;BME280;17458;48.958;8.284;2023-05-02T04:56:17;100747.25;;;13.84;71.21
30708;BME280;17458;48.958;8.284;2023-05-02T04:59:01;100747.28;;;14.06;70.56
30708;BME280;17458;48.958;8.284;2023-05-02T05:01:47;100747.53;;;14.33;70.13
30708;BME280;17458;48.958;8.284;2023-05-02T05:04:31;100756.03;;;14.66;68.92
30708;BME280;17458;48.958;8.284;2023-05-02T05:07:16;100757.63;;;14.83;68.28
30708;BME280;17458;48.958;8.284;2023-05-02T05:10:03;100768.41;;;14.64;68.64
30708;BME280;17458;48.958;8.284;2023-05-02T05:12:54;100774.06;;;14.49;69.11
30708;BME280;17458;48.958;8.284;2023-05-02T05:15:39;100779.50;;;14.32;70.56
30708;BME280;17458;48.958;8.284;2023-05-02T05:18:23;100789.69;;;14.19;70.81
30708;BME280;17458;48.958;8.284;2023-05-02T05:21:11;100789.03;;;14.25;71.08
30708;BME280;17458;48.958;8.284;2023-05-02T05:23:56;100799.03;;;14.29;70.88
30708;BME280;17458;48.958;8.284;2023-05-02T05:26:44;100804.88;;;14.20;71.09
30708;BME280;17458;48.958;8.284;2023-05-02T05:29:30;100813.53;;;14.36;70.64
30708;BME280;17458;48.958;8.284;2023-05-02T05:32:16;100808.44;;;14.40;70.90
30708;BME280;17458;48.958;8.284;2023-05-02T05:35:01;100809.16;;;14.38;70.69
30708;BME280;17458;48.958;8.284;2023-05-02T05:37:46;100814.22;;;14.51;71.26
30708;BME280;17458;48.958;8.284;2023-05-02T05:40:33;100817.66;;;14.48;71.34
30708;BME280;17458;48.958;8.284;2023-05-02T05:43:17;100819.28;;;14.66;70.54
30708;BME280;17458;48.958;8.284;2023-05-02T05:46:01;100818.63;;;14.50;70.81
30708;BME280;17458;48.958;8.284;2023-05-02T05:48:48;100822.44;;;14.78;71.28
30708;BME280;17458;48.958;8.284;2023-05-02T05:51:34;100819.34;;;14.89;71.06
30708;BME280;17458;48.958;8.284;2023-05-02T05:54:18;100815.13;;;14.74;70.91
30708;BME280;17458;48.958;8.284;2023-05-02T05:57:02;100818.06;;;14.80;71.00
30708;BME280;17458;48.958;8.284;2023-05-02T05:59:47;100821.59;;;14.57;72.17
30708;BME280;17458;48.958;8.284;2023-05-02T06:02:32;100825.84;;;14.74;72.01
30708;BME280;17458;48.958;8.284;2023-05-02T06:05:17;100825.66;;;14.92;72.16
30708;BME280;17458;48.958;8.284;2023-05-02T06:08:01;100836.22;;;14.87;71.40
30708;BME280;17458;48.958;8.284;2023-05-02T06:10:45;100826.75;;;15.19;70.85
30708;BME280;17458;48.958;8.284;2023-05-02T06:13:30;100831.97;;;15.16;70.55
30708;BME280;17458;48.958;8.284;2023-05-02T06:16:14;100831.25;;;15.20;70.04
30708;BME280;17458;48.958;8.284;2023-05-02T06:18:58;100834.41;;;15.32;69.43
30708;BME280;17458;48.958;8.284;2023-05-02T06:21:42;100838.19;;;15.37;70.09
30708;BME280;17458;48.958;8.284;2023-05-02T06:24:26;100854.53;;;15.67;69.01
30708;BME280;17458;48.958;8.284;2023-05-02T06:27:10;100858.38;;;15.99;67.80
30708;BME280;17458;48.958;8.284;2023-05-02T06:29:53;100864.06;;;16.34;67.03
30708;BME280;17458;48.958;8.284;2023-05-02T06:32:38;100871.53;;;16.68;65.78
30708;BME280;17458;48.958;8.284;2023-05-02T06:35:22;100870.56;;;16.65;65.51
30708;BME280;17458;48.958;8.284;2023-05-02T06:38:06;100880.63;;;16.22;65.91
30708;BME280;17458;48.958;8.284;2023-05-02T06:40:50;100882.44;;;16.48;66.39
30708;BME280;17458;48.958;8.284;2023-05-02T06:43:34;100889.28;;;16.64;65.83
30708;BME280;17458;48.958;8.284;2023-05-02T06:46:18;100896.22;;;16.59;64.90
30708;BME280;17458;48.958;8.284;2023-05-02T06:49:03;100904.53;;;15.46;66.75
30708;BME280;17458;48.958;8.284;2023-05-02T06:51:48;100903.44;;;15.63;68.01
30708;BME280;17458;48.958;8.284;2023-05-02T06:54:32;100904.63;;;16.19;67.02
30708;BME280;17458;48.958;8.284;2023-05-02T06:57:16;100911.16;;;16.25;67.12
30708;BME280;17458;48.958;8.284;2023-05-02T07:00:00;100910.06;;;16.20;66.92
30708;BME280;17458;48.958;8.284;2023-05-02T07:02:45;100916.34;;;16.70;65.47
30708;BME280;17458;48.958;8.284;2023-05-02T07:05:29;100914.00;;;16.55;64.65
30708;BME280;17458;48.958;8.284;2023-05-02T07:08:14;100920.28;;;16.57;64.52
30708;BME280;17458;48.958;8.284;2023-05-02T07:10:58;100924.50;;;16.49;64.79
30708;BME280;17458;48.958;8.284;2023-05-02T07:13:42;100920.63;;;16.65;65.38
30708;BME280;17458;48.958;8.284;2023-05-02T07:16:26;100928.28;;;17.07;65.21
30708;BME280;17458;48.958;8.284;2023-05-02T07:19:10;100921.78;;;17.27;65.08
30708;BME280;17458;48.958;8.284;2023-05-02T07:21:54;100923.91;;;17.37;63.57
30708;BME280;17458;48.958;8.284;2023-05-02T07:24:41;100914.50;;;17.51;64.15
30708;BME280;17458;48.958;8.284;2023-05-02T07:27:25;100923.69;;;17.88;62.85
30708;BME280;17458;48.958;8.284;2023-05-02T07:30:09;100929.66;;;17.49;63.79
30708;BME280;17458;48.958;8.284;2023-05-02T07:32:53;100919.53;;;17.99;63.31
30708;BME280;17458;48.958;8.284;2023-05-02T07:35:37;100919.59;;;18.00;64.66
30708;BME280;17458;48.958;8.284;2023-05-02T07:38:21;100926.13;;;18.41;62.16
30708;BME280;17458;48.958;8.284;2023-05-02T07:41:05;100929.22;;;17.92;58.84
30708;BME280;17458;48.958;8.284;2023-05-02T07:43:49;100929.47;;;18.33;60.04
30708;BME280;17458;48.958;8.284;2023-05-02T07:46:33;100925.22;;;18.72;59.51
30708;BME280;17458;48.958;8.284;2023-05-02T07:49:18;100927.09;;;18.43;56.03
30708;BME280;17458;48.958;8.284;2023-05-02T07:52:03;100932.66;;;17.88;58.23
30708;BME280;17458;48.958;8.284;2023-05-02T07:54:47;100935.22;;;17.84;59.20
30708;BME280;17458;48.958;8.284;2023-05-02T07:57:32;100942.34;;;17.83;59.03
30708;BME280;17458;48.958;8.284;2023-05-02T08:00:16;100937.03;;;17.56;58.52
30708;BME280;17458;48.958;8.284;2023-05-02T08:03:00;100938.78;;;17.26;59.31
30708;BME280;17458;48.958;8.284;2023-05-02T08:05:44;100931.63;;;17.26;60.35
30708;BME280;17458;48.958;8.284;2023-05-02T08:08:28;100937.75;;;17.22;59.88
30708;BME280;17458;48.958;8.284;2023-05-02T08:11:12;100943.22;;;16.73;62.35
30708;BME280;17458;48.958;8.284;2023-05-02T08:13:56;100948.63;;;17.55;60.05
30708;BME280;17458;48.958;8.284;2023-05-02T08:16:41;100950.34;;;17.80;58.80
30708;BME280;17458;48.958;8.284;2023-05-02T08:19:25;100951.94;;;17.74;57.83
30708;BME280;17458;48.958;8.284;2023-05-02T08:22:10;100949.31;;;18.36;59.83
30708;BME280;17458;48.958;8.284;2023-05-02T08:24:53;100946.53;;;18.99;56.45
30708;BME280;17458;48.958;8.284;2023-05-02T08:27:37;100957.56;;;19.08;54.97
30708;BME280;17458;48.958;8.284;2023-05-02T08:30:21;100960.03;;;18.66;54.99
30708;BME280;17458;48.958;8.284;2023-05-02T08:33:07;100957.28;;;18.33;55.39
30708;BME280;17458;48.958;8.284;2023-05-02T08:36:09;100959.59;;;18.20;56.77
30708;BME280;17458;48.958;8.284;2023-05-02T08:38:53;100955.75;;;18.43;55.28
30708;BME280;17458;48.958;8.284;2023-05-02T08:41:37;100958.88;;;17.97;56.39
30708;BME280;17458;48.958;8.284;2023-05-02T08:44:21;100967.72;;;18.54;54.62
30708;BME280;17458;48.958;8.284;2023-05-02T08:47:05;100966.13;;;17.99;55.72
30708;BME280;17458;48.958;8.284;2023-05-02T08:49:50;100974.50;;;18.09;55.88
30708;BME280;17458;48.958;8.284;2023-05-02T08:52:37;100970.75;;;18.03;56.00
30708;BME280;17458;48.958;8.284;2023-05-02T08:55:22;100971.50;;;18.59;54.33
30708;BME280;17458;48.958;8.284;2023-05-02T08:58:10;100980.19;;;18.51;54.41
30708;BME280;17458;48.958;8.284;2023-05-02T09:00:54;100978.31;;;19.14;53.99
30708;BME280;17458;48.958;8.284;2023-05-02T09:03:42;100974.31;;;18.64;55.03
30708;BME280;17458;48.958;8.284;2023-05-02T09:06:26;100978.88;;;18.66;53.57
30708;BME280;17458;48.958;8.284;2023-05-02T09:09:12;100979.97;;;19.09;52.41
30708;BME280;17458;48.958;8.284;2023-05-02T09:11:55;100979.50;;;19.25;53.57
30708;BME280;17458;48.958;8.284;2023-05-02T09:14:42;100973.47;;;19.35;53.57
30708;BME280;17458;48.958;8.284;2023-05-02T09:17:26;100976.78;;;20.00;51.47
30708;BME280;17458;48.958;8.284;2023-05-02T09:20:21;100985.03;;;20.08;49.71
30708;BME280;17458;48.958;8.284;2023-05-02T09:23:05;100979.66;;;20.06;50.67
30708;BME280;17458;48.958;8.284;2023-05-02T09:25:50;100988.41;;;20.38;50.16
30708;BME280;17458;48.958;8.284;2023-05-02T09:28:48;100988.63;;;20.47;49.43
30708;BME280;17458;48.958;8.284;2023-05-02T09:31:33;100990.63;;;19.75;50.39
30708;BME280;17458;48.958;8.284;2023-05-02T09:34:19;100988.16;;;19.48;51.62
30708;BME280;17458;48.958;8.284;2023-05-02T09:37:03;100992.81;;;18.22;54.63
30708;BME280;17458;48.958;8.284;2023-05-02T09:40:04;100987.31;;;18.80;53.97
30708;BME280;17458;48.958;8.284;2023-05-02T09:42:49;100977.41;;;18.79;53.46
30708;BME280;17458;48.958;8.284;2023-05-02T09:45:34;100986.25;;;19.08;53.29
30708;BME280;17458;48.958;8.284;2023-05-02T09:48:18;100986.44;;;19.89;51.86
30708;BME280;17458;48.958;8.284;2023-05-02T09:51:02;100982.00;;;19.91;50.20
30708;BME280;17458;48.958;8.284;2023-05-02T09:53:48;100979.66;;;20.06;49.15
30708;BME280;17458;48.958;8.284;2023-05-02T09:56:50;100988.06;;;20.23;48.49
30708;BME280;17458;48.958;8.284;2023-05-02T09:59:35;100983.66;;;20.27;49.28
30708;BME280;17458;48.958;8.284;2023-05-02T10:02:20;100987.53;;;20.84;48.13
30708;BME280;17458;48.958;8.284;2023-05-02T10:05:07;100987.84;;;21.01;48.29
30708;BME280;17458;48.958;8.284;2023-05-02T10:07:53;100991.66;;;20.66;47.87
30708;BME280;17458;48.958;8.284;2023-05-02T10:10:39;100996.63;;;21.39;47.00
30708;BME280;17458;48.958;8.284;2023-05-02T10:13:26;100992.41;;;21.05;47.83
30708;BME280;17458;48.958;8.284;2023-05-02T10:16:21;101002.59;;;21.20;47.28
30708;BME280;17458;48.958;8.284;2023-05-02T10:19:11;101009.06;;;20.36;49.69
30708;BME280;17458;48.958;8.284;2023-05-02T10:21:58;100998.28;;;20.83;47.96
30708;BME280;17458;48.958;8.284;2023-05-02T10:24:42;101000.16;;;20.40;48.72
30708;BME280;17458;48.958;8.284;2023-05-02T10:27:26;100991.72;;;20.69;48.54
30708;BME280;17458;48.958;8.284;2023-05-02T10:30:12;100990.34;;;20.91;47.58
30708;BME280;17458;48.958;8.284;2023-05-02T10:32:58;100993.50;;;20.25;48.33
30708;BME280;17458;48.958;8.284;2023-05-02T10:35:45;100984.16;;;20.51;47.94
30708;BME280;17458;48.958;8.284;2023-05-02T10:38:30;100986.66;;;20.85;47.10
30708;BME280;17458;48.958;8.284;2023-05-02T10:41:19;100986.06;;;21.54;46.98
30708;BME280;17458;48.958;8.284;2023-05-02T10:44:05;100992.34;;;21.53;45.36
30708;BME280;17458;48.958;8.284;2023-05-02T10:46:52;100978.03;;;21.62;45.05
30708;BME280;17458;48.958;8.284;2023-05-02T10:49:51;100980.09;;;21.19;47.87
30708;BME280;17458;48.958;8.284;2023-05-02T10:52:37;100987.78;;;20.51;47.87
30708;BME280;17458;48.958;8.284;2023-05-02T10:55:23;100987.97;;;20.61;46.75
30708;BME280;17458;48.958;8.284;2023-05-02T11:00:51;100987.41;;;21.84;45.29
30708;BME280;17458;48.958;8.284;2023-05-02T11:09:47;100981.31;;;21.40;44.26
30708;BME280;17458;48.958;8.284;2023-05-02T11:18:23;100985.59;;;19.92;47.05
30708;BME280;17458;48.958;8.284;2023-05-02T11:21:27;100981.50;;;20.10;48.15
30708;BME280;17458;48.958;8.284;2023-05-02T11:24:45;100981.81;;;19.46;49.11
30708;BME280;17458;48.958;8.284;2023-05-02T11:30:35;100984.66;;;19.52;49.13
30708;BME280;17458;48.958;8.284;2023-05-02T11:33:20;100975.78;;;19.56;49.04
30708;BME280;17458;48.958;8.284;2023-05-02T11:36:04;100975.75;;;19.55;48.78
30708;BME280;17458;48.958;8.284;2023-05-02T11:38:48;100992.16;;;19.64;48.64
30708;BME280;17458;48.958;8.284;2023-05-02T11:41:42;100985.91;;;19.30;48.79
30708;BME280;17458;48.958;8.284;2023-05-02T11:44:26;100980.22;;;19.92;48.58
30708;BME280;17458;48.958;8.284;2023-05-02T11:47:11;100982.56;;;20.17;47.66
30708;BME280;17458;48.958;8.284;2023-05-02T11:49:56;100982.06;;;19.96;47.24
30708;BME280;17458;48.958;8.284;2023-05-02T11:52:42;100980.75;;;20.60;47.01
30708;BME280;17458;48.958;8.284;2023-05-02T11:55:26;100985.66;;;20.82;45.87
30708;BME280;17458;48.958;8.284;2023-05-02T11:58:17;100980.13;;;20.29;46.71
30708;BME280;17458;48.958;8.284;2023-05-02T12:01:13;100977.97;;;20.13;46.92
30708;BME280;17458;48.958;8.284;2023-05-02T12:04:05;100987.25;;;20.27;46.56
30708;BME280;17458;48.958;8.284;2023-05-02T12:06:54;100983.75;;;20.31;46.09
30708;BME280;17458;48.958;8.284;2023-05-02T12:09:52;100992.19;;;20.04;45.85
30708;BME280;17458;48.958;8.284;2023-05-02T12:12:37;100995.09;;;19.74;47.56
30708;BME280;17458;48.958;8.284;2023-05-02T12:15:22;100996.47;;;19.57;47.80
30708;BME280;17458;48.958;8.284;2023-05-02T12:18:06;100992.00;;;19.58;48.85
30708;BME280;17458;48.958;8.284;2023-05-02T12:20:51;100990.94;;;19.51;47.40
30708;BME280;17458;48.958;8.284;2023-05-02T12:23:36;100999.50;;;19.35;47.63
30708;BME280;17458;48.958;8.284;2023-05-02T12:26:21;101000.31;;;20.06;46.33
30708;BME280;17458;48.958;8.284;2023-05-02T12:29:08;100997.75;;;20.13;47.02
30708;BME280;17458;48.958;8.284;2023-05-02T12:31:52;100999.88;;;19.88;46.02
30708;BME280;17458;48.958;8.284;2023-05-02T12:34:37;100999.44;;;20.08;45.88
30708;BME280;17458;48.958;8.284;2023-05-02T12:37:23;100995.34;;;20.27;45.50
30708;BME280;17458;48.958;8.284;2023-05-02T12:40:14;100999.72;;;20.21;45.88
30708;BME280;17458;48.958;8.284;2023-05-02T12:43:03;100994.25;;;19.77;46.03
30708;BME280;17458;48.958;8.284;2023-05-02T12:45:49;101000.94;;;19.21;46.36
30708;BME280;17458;48.958;8.284;2023-05-02T12:48:36;101002.53;;;19.48;46.79
30708;BME280;17458;48.958;8.284;2023-05-02T12:51:23;100992.84;;;19.21;46.25
30708;BME280;17458;48.958;8.284;2023-05-02T12:54:07;100991.97;;;19.56;45.44
30708;BME280;17458;48.958;8.284;2023-05-02T12:57:02;101004.16;;;19.78;44.53
30708;BME280;17458;48.958;8.284;2023-05-02T12:59:47;100996.44;;;19.56;45.00
30708;BME280;17458;48.958;8.284;2023-05-02T13:02:31;100999.78;;;19.47;45.41
30708;BME280;17458;48.958;8.284;2023-05-02T13:05:16;100991.28;;;19.66;45.32
30708;BME280;17458;48.958;8.284;2023-05-02T13:08:01;100988.50;;;20.01;45.27
30708;BME280;17458;48.958;8.284;2023-05-02T13:10:45;100986.22;;;19.78;45.14
30708;BME280;17458;48.958;8.284;2023-05-02T13:13:30;100987.16;;;20.21;44.85
30708;BME280;17458;48.958;8.284;2023-05-02T13:16:15;100988.69;;;20.52;45.15
30708;BME280;17458;48.958;8.284;2023-05-02T13:18:59;100997.38;;;20.82;44.05
30708;BME280;17458;48.958;8.284;2023-05-02T13:21:44;100998.44;;;20.91;44.00
30708;BME280;17458;48.958;8.284;2023-05-02T13:24:27;100994.84;;;20.90;43.79
30708;BME280;17458;48.958;8.284;2023-05-02T13:27:11;100995.44;;;21.23;42.87
30708;BME280;17458;48.958;8.284;2023-05-02T13:29:56;101000.13;;;21.34;43.25
30708;BME280;17458;48.958;8.284;2023-05-02T13:32:40;100996.09;;;21.62;42.37
30708;BME280;17458;48.958;8.284;2023-05-02T13:35:25;100998.91;;;21.16;41.43
30708;BME280;17458;48.958;8.284;2023-05-02T13:38:09;100988.66;;;20.97;42.50
30708;BME280;17458;48.958;8.284;2023-05-02T13:40:54;100978.66;;;21.43;41.66
30708;BME280;17458;48.958;8.284;2023-05-02T13:43:38;100989.75;;;21.63;41.73
30708;BME280;17458;48.958;8.284;2023-05-02T13:46:23;100983.13;;;21.41;41.52
30708;BME280;17458;48.958;8.284;2023-05-02T13:49:07;100990.47;;;22.08;40.35
30708;BME280;17458;48.958;8.284;2023-05-02T13:51:51;100986.31;;;21.71;41.82
30708;BME280;17458;48.958;8.284;2023-05-02T13:54:35;100987.00;;;21.56;41.53
30708;BME280;17458;48.958;8.284;2023-05-02T13:57:18;100983.25;;;21.48;41.57
30708;BME280;17458;48.958;8.284;2023-05-02T14:00:03;100980.50;;;21.44;41.44
30708;BME280;17458;48.958;8.284;2023-05-02T14:02:49;100978.69;;;21.44;41.00
30708;BME280;17458;48.958;8.284;2023-05-02T14:05:33;100976.66;;;21.90;39.59
30708;BME280;17458;48.958;8.284;2023-05-02T14:08:17;100973.91;;;22.55;38.66
30708;BME280;17458;48.958;8.284;2023-05-02T14:11:02;100978.69;;;22.03;39.75
30708;BME280;17458;48.958;8.284;2023-05-02T14:13:45;100975.88;;;21.99;40.60
30708;BME280;17458;48.958;8.284;2023-05-02T14:16:29;100966.19;;;22.91;39.99
30708;BME280;17458;48.958;8.284;2023-05-02T14:19:13;100968.50;;;22.55;40.28
30708;BME280;17458;48.958;8.284;2023-05-02T14:21:57;100976.22;;;21.60;40.24
30708;BME280;17458;48.958;8.284;2023-05-02T14:24:41;100973.72;;;22.38;39.72
30708;BME280;17458;48.958;8.284;2023-05-02T14:27:25;100971.06;;;22.41;40.28
30708;BME280;17458;48.958;8.284;2023-05-02T14:30:10;100971.97;;;21.77;39.28
30708;BME280;17458;48.958;8.284;2023-05-02T14:32:54;100970.28;;;21.26;40.14
30708;BME280;17458;48.958;8.284;2023-05-02T14:35:38;100976.38;;;21.16;41.31
30708;BME280;17458;48.958;8.284;2023-05-02T14:38:22;100967.78;;;21.38;39.40
30708;BME280;17458;48.958;8.284;2023-05-02T14:41:06;100968.66;;;20.86;39.81
30708;BME280;17458;48.958;8.284;2023-05-02T14:43:51;100961.56;;;20.93;40.42
30708;BME280;17458;48.958;8.284;2023-05-02T14:46:35;100968.69;;;21.39;40.18
30708;BME280;17458;48.958;8.284;2023-05-02T14:49:19;100967.41;;;21.17;39.51
30708;BME280;17458;48.958;8.284;2023-05-02T14:52:03;100960.31;;;21.22;38.97
30708;BME280;17458;48.958;8.284;2023-05-02T14:54:47;100963.00;;;21.81;39.24
30708;BME280;17458;48.958;8.284;2023-05-02T14:57:31;100959.00;;;22.13;37.69
30708;BME280;17458;48.958;8.284;2023-05-02T15:00:17;100951.94;;;22.26;37.06
30708;BME280;17458;48.958;8.284;2023-05-02T15:03:01;100963.41;;;22.07;38.06